createdAt,value
2022-10-20T00:00:35.569Z,11.03
2022-10-20T00:03:03.335Z,10.63
2022-10-20T00:05:31.068Z,11.63
2022-10-20T00:07:58.799Z,10.63
2022-10-20T00:10:26.556Z,10.63
2022-10-20T00:12:54.292Z,6.80
2022-10-20T00:15:21.989Z,7.67
2022-10-20T00:17:51.027Z,10.73
2022-10-20T00:20:18.800Z,7.13
2022-10-20T00:22:46.548Z,6.93
2022-10-20T00:25:14.220Z,6.40
2022-10-20T00:27:41.923Z,9.93
2022-10-20T00:30:10.303Z,9.57
2022-10-20T00:32:38.531Z,7.50
2022-10-20T00:35:08.732Z,7.30
2022-10-20T00:37:36.460Z,6.43
2022-10-20T00:40:04.797Z,7.07
2022-10-20T00:42:32.715Z,7.93
2022-10-20T00:45:01.842Z,6.87
2022-10-20T00:47:37.705Z,8.23
2022-10-20T00:50:11.759Z,7.27
2022-10-20T00:52:41.160Z,8.20
2022-10-20T00:55:11.305Z,6.57
2022-10-20T00:57:39.654Z,7.00
2022-10-20T01:00:08.885Z,7.73
2022-10-20T01:02:37.254Z,8.07
2022-10-20T01:05:06.024Z,8.93
2022-10-20T01:07:35.723Z,6.63
2022-10-20T01:10:05.227Z,8.60
2022-10-20T01:12:43.239Z,5.97
2022-10-20T01:15:21.426Z,6.40
2022-10-20T01:18:02.976Z,8.77
2022-10-20T01:21:00.864Z,7.83
2022-10-20T01:23:55.062Z,10.47
2022-10-20T01:26:44.722Z,8.77
2022-10-20T01:29:19.911Z,8.30
2022-10-20T01:31:54.276Z,6.10
2022-10-20T01:34:29.154Z,9.43
2022-10-20T01:37:01.432Z,6.30
2022-10-20T01:39:32.257Z,7.03
2022-10-20T01:42:04.714Z,8.70
2022-10-20T01:44:37.263Z,9.30
2022-10-20T01:47:06.919Z,7.23
2022-10-20T01:49:34.647Z,8.90
2022-10-20T01:52:02.660Z,7.93
2022-10-20T01:54:31.936Z,8.63
2022-10-20T01:57:19.764Z,8.10
2022-10-20T02:00:02.340Z,8.93
2022-10-20T02:02:53.068Z,7.73
2022-10-20T02:05:34.081Z,6.13
2022-10-20T02:08:13.095Z,8.53
2022-10-20T02:10:47.288Z,7.50
2022-10-20T02:13:16.237Z,7.83
2022-10-20T02:15:48.340Z,10.73
2022-10-20T02:18:21.006Z,5.37
2022-10-20T02:20:51.493Z,6.07
2022-10-20T02:23:19.465Z,8.23
2022-10-20T02:25:49.480Z,6.83
2022-10-20T02:28:18.366Z,6.43
2022-10-20T02:30:48.618Z,10.03
2022-10-20T02:33:17.590Z,6.13
2022-10-20T02:35:51.993Z,7.17
2022-10-20T02:38:19.650Z,7.83
2022-10-20T02:40:47.620Z,7.30
2022-10-20T02:43:15.410Z,8.53
2022-10-20T02:45:43.196Z,7.90
2022-10-20T02:48:12.227Z,8.70
2022-10-20T02:50:39.929Z,7.00
2022-10-20T02:53:07.772Z,8.60
2022-10-20T02:55:35.548Z,7.57
2022-10-20T02:58:03.198Z,8.17
2022-10-20T03:00:31.669Z,6.43
2022-10-20T03:02:59.394Z,7.10
2022-10-20T03:05:29.349Z,8.77
2022-10-20T03:07:57.219Z,10.27
2022-10-20T03:10:24.946Z,11.00
2022-10-20T03:12:52.604Z,6.83
2022-10-20T03:15:20.304Z,10.07
2022-10-20T03:17:47.975Z,7.43
2022-10-20T03:20:15.699Z,7.27
2022-10-20T03:22:44.746Z,8.43
2022-10-20T03:25:12.515Z,9.60
2022-10-20T03:27:40.200Z,7.83
2022-10-20T03:30:08.754Z,7.13
2022-10-20T03:32:36.700Z,7.97
2022-10-20T03:35:05.012Z,6.70
2022-10-20T03:37:32.745Z,8.77
2022-10-20T03:40:01.798Z,7.63
2022-10-20T03:42:29.523Z,6.63
2022-10-20T03:44:57.230Z,7.57
2022-10-20T03:47:24.931Z,7.37
2022-10-20T03:49:52.645Z,5.30
2022-10-20T03:52:20.406Z,6.87
2022-10-20T03:54:48.100Z,6.57
2022-10-20T03:57:17.659Z,7.13
2022-10-20T03:59:45.359Z,7.13
2022-10-20T04:02:25.215Z,6.83
2022-10-20T04:04:53.066Z,8.23
2022-10-20T04:07:20.796Z,5.90
2022-10-20T04:09:48.740Z,6.93
2022-10-20T04:12:18.236Z,8.97
2022-10-20T04:14:46.022Z,6.13
2022-10-20T04:17:13.753Z,6.20
2022-10-20T04:19:41.662Z,6.70
2022-10-20T04:22:09.426Z,5.97
2022-10-20T04:24:37.121Z,9.27
2022-10-20T04:27:05.682Z,8.67
2022-10-20T04:29:34.755Z,7.87
2022-10-20T04:32:02.575Z,9.53
2022-10-20T04:34:30.260Z,8.17
2022-10-20T04:36:58.913Z,7.07
2022-10-20T04:39:26.614Z,6.50
2022-10-20T04:41:54.524Z,6.07
2022-10-20T04:44:22.273Z,5.67
2022-10-20T04:46:51.372Z,6.80
2022-10-20T04:49:19.056Z,6.30
2022-10-20T04:51:46.768Z,7.40
2022-10-20T04:54:14.560Z,8.70
2022-10-20T04:56:42.351Z,4.80
2022-10-20T04:59:13.451Z,5.90
2022-10-20T05:01:41.885Z,6.17
2022-10-20T05:04:11.902Z,6.50
2022-10-20T05:06:39.867Z,7.30
2022-10-20T05:09:08.393Z,4.90
2022-10-20T05:11:37.828Z,7.23
2022-10-20T05:14:08.682Z,5.87
2022-10-20T05:16:36.443Z,11.00
2022-10-20T05:19:04.280Z,6.67
2022-10-20T05:21:33.886Z,7.03
2022-10-20T05:24:03.966Z,7.93
2022-10-20T05:26:34.903Z,6.43
2022-10-20T05:29:04.562Z,8.03
2022-10-20T05:31:32.326Z,6.83
2022-10-20T05:34:00.072Z,6.67
2022-10-20T05:36:28.418Z,9.23
2022-10-20T05:38:57.549Z,5.07
2022-10-20T05:41:27.072Z,10.27
2022-10-20T05:43:57.182Z,6.57
2022-10-20T05:46:26.231Z,7.37
2022-10-20T05:48:55.327Z,8.87
2022-10-20T05:51:25.750Z,7.93
2022-10-20T05:53:57.925Z,8.10
2022-10-20T05:56:26.976Z,10.57
2022-10-20T05:58:55.026Z,6.10
2022-10-20T06:01:24.870Z,7.07
2022-10-20T06:03:54.453Z,7.93
2022-10-20T06:06:24.496Z,5.00
2022-10-20T06:08:53.478Z,6.87
2022-10-20T06:11:24.062Z,6.80
2022-10-20T06:13:53.148Z,5.70
2022-10-20T06:16:23.347Z,5.30
2022-10-20T06:18:51.372Z,6.67
2022-10-20T06:21:21.379Z,8.20
2022-10-20T06:23:50.191Z,7.20
2022-10-20T06:26:20.462Z,7.87
2022-10-20T06:28:51.802Z,6.30
2022-10-20T06:31:20.773Z,6.03
2022-10-20T06:33:49.011Z,6.50
2022-10-20T06:36:17.266Z,7.27
2022-10-20T06:38:45.716Z,8.07
2022-10-20T06:41:16.132Z,8.13
2022-10-20T06:43:44.368Z,6.77
2022-10-20T06:46:16.277Z,6.57
2022-10-20T06:48:44.339Z,7.70
2022-10-20T06:51:14.359Z,6.73
2022-10-20T06:53:46.528Z,9.23
2022-10-20T06:56:16.424Z,9.97
2022-10-20T06:58:46.440Z,6.80
2022-10-20T07:01:18.219Z,7.90
2022-10-20T07:03:48.789Z,6.30
2022-10-20T07:06:18.348Z,6.17
2022-10-20T07:08:47.265Z,6.63
2022-10-20T07:11:17.597Z,11.23
2022-10-20T07:13:46.107Z,9.80
2022-10-20T07:16:16.867Z,7.60
2022-10-20T07:18:45.148Z,8.17
2022-10-20T07:21:15.264Z,7.40
2022-10-20T07:23:43.366Z,8.43
2022-10-20T07:26:14.184Z,9.43
2022-10-20T07:28:43.606Z,10.27
2022-10-20T07:31:13.701Z,9.23
2022-10-20T07:33:42.974Z,7.37
2022-10-20T07:36:15.989Z,8.20
2022-10-20T07:38:43.764Z,7.60
2022-10-20T07:41:12.126Z,10.50
2022-10-20T07:43:41.034Z,7.53
2022-10-20T07:46:09.315Z,7.07
2022-10-20T07:48:37.319Z,9.07
2022-10-20T07:51:17.985Z,7.23
2022-10-20T07:53:45.854Z,7.60
2022-10-20T07:56:13.851Z,7.87
2022-10-20T07:58:42.011Z,9.67
2022-10-20T08:01:10.476Z,7.80
2022-10-20T08:03:38.235Z,9.37
2022-10-20T08:06:07.083Z,12.33
2022-10-20T08:08:36.241Z,8.57
2022-10-20T08:11:04.452Z,11.00
2022-10-20T08:13:32.808Z,10.00
2022-10-20T08:16:01.846Z,9.47
2022-10-20T08:18:29.679Z,14.37
2022-10-20T08:21:07.308Z,10.17
2022-10-20T08:23:39.365Z,11.10
2022-10-20T08:26:10.713Z,8.80
2022-10-20T08:28:39.594Z,8.57
2022-10-20T08:31:08.855Z,11.33
2022-10-20T08:33:37.037Z,9.70
2022-10-20T08:36:06.368Z,10.10
2022-10-20T08:38:34.335Z,14.07
2022-10-20T08:41:04.014Z,13.13
2022-10-20T08:43:33.376Z,17.37
2022-10-20T08:46:01.139Z,11.23
2022-10-20T08:48:33.396Z,18.73
2022-10-20T08:51:01.364Z,13.00
2022-10-20T08:53:34.395Z,12.20
2022-10-20T08:56:03.468Z,12.40
2022-10-20T08:58:31.203Z,14.50
2022-10-20T09:01:01.028Z,11.67
2022-10-20T09:03:30.729Z,11.63
2022-10-20T09:06:07.366Z,13.03
2022-10-20T09:08:37.983Z,11.23
2022-10-20T09:11:09.093Z,12.83
2022-10-20T09:13:38.310Z,13.83
2022-10-20T09:16:18.366Z,12.40
2022-10-20T09:18:58.576Z,9.67
2022-10-20T09:21:26.967Z,10.30
2022-10-20T09:24:01.344Z,8.93
2022-10-20T09:26:54.651Z,14.30
2022-10-20T09:29:36.090Z,10.43
2022-10-20T09:32:34.027Z,12.77
2022-10-20T09:34:51.516Z,11.10
2022-10-20T09:37:20.914Z,9.80
2022-10-20T09:39:55.937Z,11.63
2022-10-20T09:42:30.080Z,12.60
2022-10-20T09:45:01.518Z,11.00
2022-10-20T09:47:29.969Z,9.47
2022-10-20T09:50:01.330Z,11.00
2022-10-20T09:52:34.394Z,10.33
2022-10-20T09:55:06.154Z,12.20
2022-10-20T09:57:35.911Z,11.87
2022-10-20T10:00:13.465Z,9.90
2022-10-20T10:03:09.682Z,10.33
2022-10-20T10:05:37.500Z,8.50
2022-10-20T10:08:05.442Z,13.47
2022-10-20T10:10:33.337Z,12.33
2022-10-20T10:15:34.405Z,12.73
2022-10-20T10:18:13.817Z,12.77
2022-10-20T10:20:42.372Z,11.90
2022-10-20T10:23:24.371Z,13.60
2022-10-20T10:25:53.407Z,13.30
2022-10-20T10:28:35.271Z,13.87
2022-10-20T10:31:19.487Z,13.33
2022-10-20T10:33:47.519Z,13.80
2022-10-20T10:36:22.301Z,11.77
2022-10-20T10:38:50.013Z,13.97
2022-10-20T10:41:25.171Z,13.37
2022-10-20T10:44:03.790Z,12.70
2022-10-20T10:46:37.949Z,12.93
2022-10-20T10:49:42.688Z,14.27
2022-10-20T10:52:26.428Z,11.63
2022-10-20T10:55:03.283Z,12.20
2022-10-20T10:57:37.563Z,13.90
2022-10-20T11:00:17.199Z,13.93
2022-10-20T11:03:11.429Z,11.93
2022-10-20T11:06:03.029Z,13.20
2022-10-20T11:08:47.430Z,12.43
2022-10-20T11:11:27.412Z,12.93
2022-10-20T11:14:08.367Z,16.97
2022-10-20T11:16:42.650Z,15.73
2022-10-20T11:19:35.894Z,14.30
2022-10-20T11:22:16.761Z,17.43
2022-10-20T11:24:50.037Z,17.33
2022-10-20T11:27:20.079Z,15.97
2022-10-20T11:29:50.812Z,15.50
2022-10-20T11:32:28.027Z,14.77
2022-10-20T11:35:04.207Z,16.73
2022-10-20T11:37:36.792Z,22.07
2022-10-20T11:40:16.227Z,19.87
2022-10-20T11:42:51.198Z,17.17
2022-10-20T11:45:35.475Z,18.77
2022-10-20T11:48:13.146Z,18.40
2022-10-20T11:50:43.128Z,16.33
2022-10-20T11:53:39.788Z,17.40
2022-10-20T11:56:34.132Z,19.27
2022-10-20T11:59:42.740Z,17.20
2022-10-20T12:02:41.626Z,17.00
2022-10-20T12:05:35.085Z,16.23
2022-10-20T12:08:35.949Z,19.23
2022-10-20T12:11:11.668Z,16.07
2022-10-20T12:13:48.958Z,13.73
2022-10-20T12:16:49.989Z,16.13
2022-10-20T12:19:19.933Z,14.00
2022-10-20T12:22:00.209Z,16.83
2022-10-20T12:24:34.855Z,18.53
2022-10-20T12:27:19.155Z,16.33
2022-10-20T12:30:01.800Z,19.93
2022-10-20T12:32:54.183Z,14.97
2022-10-20T12:35:47.616Z,15.20
2022-10-20T12:38:19.927Z,15.63
2022-10-20T12:40:52.693Z,15.93
2022-10-20T12:43:27.275Z,15.70
2022-10-20T12:45:59.827Z,16.03
2022-10-20T12:48:28.470Z,15.47
2022-10-20T12:51:07.518Z,16.50
2022-10-20T12:53:36.870Z,16.70
2022-10-20T12:56:08.879Z,17.47
2022-10-20T12:58:38.284Z,16.90
2022-10-20T13:01:13.286Z,17.13
2022-10-20T13:03:44.183Z,20.70
2022-10-20T13:06:40.650Z,16.10
2022-10-20T13:09:27.759Z,16.77
2022-10-20T13:11:59.339Z,17.10
2022-10-20T13:14:34.578Z,18.57
2022-10-20T13:17:13.690Z,16.40
2022-10-20T13:19:48.443Z,17.10
2022-10-20T13:22:35.911Z,17.90
2022-10-20T13:25:07.878Z,17.37
2022-10-20T13:27:38.992Z,14.17
2022-10-20T13:30:09.371Z,16.80
2022-10-20T13:33:10.833Z,15.07
2022-10-20T13:35:48.012Z,19.97
2022-10-20T13:38:21.819Z,16.97
2022-10-20T13:43:43.417Z,16.80
2022-10-20T13:46:25.397Z,15.53
2022-10-20T13:49:20.136Z,17.00
2022-10-20T13:52:00.844Z,17.57
2022-10-20T13:54:33.249Z,15.87
2022-10-20T13:57:03.482Z,19.17
2022-10-20T14:02:25.544Z,15.33
2022-10-20T14:05:03.777Z,14.80
2022-10-20T14:07:42.556Z,15.27
2022-10-20T14:10:26.672Z,13.73
2022-10-20T14:12:56.810Z,14.30
2022-10-20T14:15:31.584Z,17.07
2022-10-20T14:18:02.579Z,14.43
2022-10-20T14:20:32.012Z,15.37
2022-10-20T14:23:01.338Z,18.93
2022-10-20T14:25:31.400Z,16.47
2022-10-20T14:28:05.134Z,18.50
2022-10-20T14:30:40.195Z,15.87
2022-10-20T14:33:16.017Z,13.60
2022-10-20T14:35:48.457Z,15.07
2022-10-20T14:38:23.798Z,16.20
2022-10-20T14:40:55.972Z,16.30
2022-10-20T14:43:37.151Z,14.93
2022-10-20T14:46:06.509Z,15.33
2022-10-20T14:48:37.771Z,15.80
2022-10-20T14:51:31.046Z,14.63
2022-10-20T14:54:19.940Z,16.13
2022-10-20T14:56:51.239Z,15.80
2022-10-20T14:59:23.331Z,16.47
2022-10-20T15:02:08.547Z,14.30
2022-10-20T15:04:40.039Z,18.20
2022-10-20T15:07:13.614Z,16.17
2022-10-20T15:09:43.953Z,15.10
2022-10-20T15:56:23.636Z,19.07
2022-10-20T15:58:51.452Z,17.53
2022-10-20T16:01:20.804Z,18.47
2022-10-20T16:03:49.451Z,23.30
2022-10-20T16:06:18.976Z,17.83
2022-10-20T16:08:48.005Z,19.10
2022-10-20T16:11:17.285Z,18.03
2022-10-20T16:13:46.403Z,19.67
2022-10-20T16:16:16.282Z,21.60
2022-10-20T16:18:44.082Z,22.33
2022-10-20T16:21:11.796Z,19.03
2022-10-20T16:23:42.356Z,18.30
2022-10-20T16:26:13.982Z,20.42
2022-10-20T16:28:43.031Z,17.67
2022-10-20T16:31:14.073Z,19.87
2022-10-20T16:33:42.071Z,20.27
2022-10-20T16:36:14.606Z,18.13
2022-10-20T16:38:42.338Z,19.40
2022-10-20T16:41:12.404Z,18.50
2022-10-20T16:43:40.893Z,17.77
2022-10-20T16:46:10.027Z,16.67
2022-10-20T16:48:41.513Z,17.47
2022-10-20T16:51:12.111Z,20.37
2022-10-20T16:53:39.849Z,19.07
2022-10-20T16:56:08.679Z,19.57
2022-10-20T16:58:36.749Z,18.37
2022-10-20T17:01:08.414Z,18.90
2022-10-20T17:03:36.630Z,18.43
2022-10-20T17:06:07.918Z,19.60
2022-10-20T17:08:37.268Z,18.90
2022-10-20T17:11:07.687Z,19.47
2022-10-20T17:13:36.766Z,17.67
2022-10-20T17:16:06.416Z,18.43
2022-10-20T17:18:34.315Z,20.73
2022-10-20T17:21:02.452Z,19.00
2022-10-20T17:23:37.390Z,17.13
2022-10-20T17:26:09.731Z,19.80
2022-10-20T17:28:38.248Z,18.67
2022-10-20T17:31:07.922Z,17.30
2022-10-20T17:33:35.993Z,17.83
2022-10-20T17:36:03.736Z,17.27
2022-10-20T17:38:33.012Z,20.50
2022-10-20T17:41:04.133Z,20.27
2022-10-20T17:43:32.091Z,21.90
2022-10-20T17:46:01.316Z,20.10
2022-10-20T17:48:29.367Z,19.67
2022-10-20T17:51:01.374Z,22.03
2022-10-20T17:53:31.271Z,17.93
2022-10-20T17:56:03.401Z,18.25
2022-10-20T17:58:31.525Z,21.90
2022-10-20T18:01:08.484Z,16.10
2022-10-20T18:03:36.571Z,18.00
2022-10-20T18:06:09.246Z,18.67
2022-10-20T18:08:37.404Z,17.30
2022-10-20T18:11:10.565Z,21.17
2022-10-20T18:13:38.859Z,18.43
2022-10-20T18:16:08.477Z,19.20
2022-10-20T18:18:36.885Z,15.82
2022-10-20T18:21:06.042Z,18.37
2022-10-20T18:23:36.056Z,19.13
2022-10-20T18:26:10.273Z,18.33
2022-10-20T18:28:42.024Z,18.37
2022-10-20T18:31:17.418Z,17.88
2022-10-20T18:33:45.565Z,15.73
2022-10-20T18:36:14.761Z,18.70
2022-10-20T18:38:44.394Z,16.43
2022-10-20T18:41:16.604Z,17.50
2022-10-20T18:43:45.726Z,17.07
2022-10-20T18:46:14.860Z,17.80
2022-10-20T18:48:43.038Z,20.47
2022-10-20T18:51:12.182Z,15.67
2022-10-20T18:56:11.715Z,18.37
2022-10-20T18:58:42.205Z,17.63
2022-10-20T19:01:11.918Z,17.30
2022-10-20T19:03:40.752Z,15.40
2022-10-20T19:06:10.785Z,18.70
2022-10-20T19:08:39.262Z,16.27
2022-10-20T19:11:10.169Z,16.43
2022-10-20T19:13:40.275Z,16.63
2022-10-20T19:16:09.699Z,16.53
2022-10-20T19:18:39.342Z,17.60
2022-10-20T19:21:08.767Z,17.00
2022-10-20T19:23:39.635Z,17.67
2022-10-20T19:26:09.522Z,17.23
2022-10-20T19:28:41.043Z,16.20
2022-10-20T19:31:21.230Z,18.80
2022-10-20T19:33:51.146Z,16.00
2022-10-20T19:36:19.085Z,17.67
2022-10-20T19:38:47.250Z,15.90
2022-10-20T19:41:15.528Z,16.83
2022-10-20T19:43:45.063Z,17.43
2022-10-20T19:46:15.980Z,18.57
2022-10-20T19:48:45.280Z,17.43
2022-10-20T19:51:13.765Z,14.87
2022-10-20T19:53:41.752Z,20.80
2022-10-20T19:56:10.799Z,16.70
2022-10-20T19:58:42.781Z,17.63
2022-10-20T20:01:14.998Z,17.90
2022-10-20T20:03:43.190Z,17.57
2022-10-20T20:06:16.103Z,19.73
2022-10-20T20:08:45.519Z,18.17
2022-10-20T20:11:22.777Z,16.30
2022-10-20T20:13:51.484Z,18.55
2022-10-20T20:16:21.360Z,22.17
2022-10-20T20:18:49.767Z,16.27
2022-10-20T20:21:18.106Z,22.20
2022-10-20T20:24:01.443Z,17.80
2022-10-20T20:26:30.177Z,18.37
2022-10-20T20:28:58.388Z,18.10
2022-10-20T20:31:28.571Z,16.30
2022-10-20T20:33:57.672Z,16.93
2022-10-20T20:36:27.515Z,16.50
2022-10-20T20:38:58.128Z,18.50
2022-10-20T20:41:28.232Z,17.77
2022-10-20T20:43:56.049Z,18.13
2022-10-20T20:46:26.673Z,17.98
2022-10-20T20:48:55.944Z,15.93
2022-10-20T20:51:25.119Z,18.80
2022-10-20T20:53:52.869Z,19.10
2022-10-20T20:56:23.106Z,18.80
2022-10-20T20:58:55.068Z,16.30
2022-10-20T21:01:24.958Z,20.27
2022-10-20T21:03:55.498Z,18.77
2022-10-20T21:06:33.233Z,16.53
2022-10-20T21:09:02.538Z,17.43
2022-10-20T21:11:30.354Z,17.03
2022-10-20T21:13:59.742Z,18.03
2022-10-20T21:16:29.314Z,16.70
2022-10-20T21:19:00.117Z,19.80
2022-10-20T21:21:29.384Z,16.93
2022-10-20T21:23:58.303Z,16.57
2022-10-20T21:26:27.502Z,19.17
2022-10-20T21:28:55.772Z,16.67
2022-10-20T21:31:25.967Z,19.83
2022-10-20T21:33:55.810Z,19.43
2022-10-20T21:36:26.135Z,21.27
2022-10-20T21:38:54.347Z,21.03
2022-10-20T21:41:23.320Z,19.57
2022-10-20T21:43:52.863Z,18.20
2022-10-20T21:46:22.995Z,19.80
2022-10-20T21:48:52.905Z,29.10
2022-10-20T21:51:22.964Z,19.83
2022-10-20T21:53:55.752Z,18.93
2022-10-20T21:56:23.504Z,18.17
2022-10-20T21:58:51.375Z,21.80
2022-10-20T22:01:21.822Z,19.00
2022-10-20T22:03:51.144Z,22.33
2022-10-20T22:06:21.059Z,21.20
2022-10-20T22:08:53.016Z,23.13
2022-10-20T22:11:23.951Z,21.00
2022-10-20T22:13:51.888Z,21.17
2022-10-20T22:16:23.107Z,26.83
2022-10-20T22:18:55.589Z,20.43
2022-10-20T22:21:24.178Z,21.93
2022-10-20T22:23:55.427Z,20.97
2022-10-20T22:26:25.702Z,21.10
2022-10-20T22:28:54.376Z,22.73
2022-10-20T22:31:22.961Z,21.27
2022-10-20T22:33:55.868Z,23.13
2022-10-20T22:36:24.381Z,20.63
2022-10-20T22:38:52.228Z,21.00
2022-10-20T22:41:21.814Z,21.87
2022-10-20T22:43:49.561Z,21.47
2022-10-20T22:46:17.773Z,20.73
2022-10-20T22:48:46.224Z,19.83
2022-10-20T22:51:15.218Z,21.90
2022-10-20T22:53:44.534Z,23.92
2022-10-20T22:56:14.796Z,17.73
2022-10-20T22:58:44.618Z,21.30
2022-10-20T23:01:17.283Z,25.27
2022-10-20T23:03:45.299Z,20.37
2022-10-20T23:06:15.432Z,21.43
2022-10-20T23:08:52.154Z,18.97
2022-10-20T23:11:24.293Z,20.23
2022-10-20T23:13:53.771Z,21.17
2022-10-20T23:16:21.730Z,20.17
2022-10-20T23:18:49.542Z,22.40
2022-10-20T23:21:20.099Z,17.73
2022-10-20T23:23:47.909Z,23.00
2022-10-20T23:26:15.729Z,20.67
2022-10-20T23:28:43.520Z,21.90
2022-10-20T23:31:13.748Z,19.83
2022-10-20T23:33:42.901Z,19.53
2022-10-20T23:36:11.039Z,18.35
2022-10-20T23:38:39.062Z,17.45
2022-10-20T23:41:07.409Z,19.23
2022-10-20T23:46:04.732Z,21.70
2022-10-20T23:48:34.354Z,20.70
2022-10-20T23:51:02.619Z,18.77
2022-10-20T23:53:31.549Z,19.13
2022-10-20T23:55:59.263Z,19.17
2022-10-20T23:58:27.245Z,18.77
